Time;durP1;ratioP1;P1;durP2;ratioP2;P2;SDS_P1;SDS_P2;PMS_P1;PMS_P2;Temp;Humidity;BMP_temperature;BMP_pressure;BME280_temperature;BME280_humidity;BME280_pressure;Samples;Min_cycle;Max_cycle;Signal;HPM_P1;HPM_P2
2022/09/12 00:01:15;;;;;;;22.40;16.77;;;15.50;99.90;;;;;;5000690;28;20214;-77
2022/09/12 00:03:42;;;;;;;19.00;14.90;;;15.50;99.90;;;;;;5003826;28;20206;-78
2022/09/12 00:06:19;;;;;;;20.47;16.03;;;15.40;99.90;;;;;;4988079;28;20246;-80
2022/09/12 00:08:58;;;;;;;22.90;15.70;;;15.40;99.90;;;;;;5002413;28;20610;-79
2022/09/12 00:11:26;;;;;;;20.60;15.80;;;15.40;99.90;;;;;;5011247;28;20210;-78
2022/09/12 00:13:58;;;;;;;21.07;15.40;;;15.30;99.90;;;;;;4999079;28;20250;-79
2022/09/12 00:16:28;;;;;;;18.23;15.00;;;15.30;99.90;;;;;;5012298;28;20269;-79
2022/09/12 00:18:55;;;;;;;20.03;15.33;;;15.20;99.90;;;;;;5003670;28;20233;-78
2022/09/12 00:21:22;;;;;;;17.73;13.90;;;15.20;99.90;;;;;;4984160;28;20309;-79
2022/09/12 00:23:50;;;;;;;14.37;12.40;;;15.20;99.90;;;;;;5000920;28;20569;-79
2022/09/12 00:26:19;;;;;;;15.13;12.67;;;15.10;99.90;;;;;;4986800;28;20243;-78
2022/09/12 00:28:47;;;;;;;15.73;13.03;;;15.10;99.90;;;;;;5007177;28;20213;-78
2022/09/12 00:31:18;;;;;;;17.40;13.60;;;15.00;99.90;;;;;;5003521;28;20306;-79
2022/09/12 00:33:47;;;;;;;19.57;15.60;;;15.10;99.90;;;;;;5006140;28;20290;-79
2022/09/12 00:36:16;;;;;;;25.23;16.93;;;15.00;99.90;;;;;;5004461;28;20241;-78
2022/09/12 00:38:44;;;;;;;20.87;17.00;;;15.00;99.90;;;;;;4988675;28;20242;-79
2022/09/12 00:41:16;;;;;;;23.27;16.97;;;15.00;99.90;;;;;;4992587;28;20437;-79
2022/09/12 00:43:52;;;;;;;25.83;17.17;;;15.00;99.90;;;;;;4991403;28;20208;-79
2022/09/12 00:46:27;;;;;;;28.57;18.07;;;15.00;99.90;;;;;;5005409;28;20206;-78
2022/09/12 00:49:16;;;;;;;21.63;17.07;;;15.00;99.90;;;;;;5007137;28;20261;-78
2022/09/12 00:51:51;;;;;;;25.80;18.87;;;15.00;99.90;;;;;;5009006;28;20223;-78
2022/09/12 00:54:23;;;;;;;24.00;18.17;;;14.90;99.90;;;;;;4992776;28;20233;-78
2022/09/12 00:56:54;;;;;;;24.97;19.03;;;14.90;99.90;;;;;;5004106;28;20238;-79
2022/09/12 00:59:27;;;;;;;26.07;18.40;;;14.90;99.90;;;;;;4983673;28;20207;-78
2022/09/12 01:01:55;;;;;;;25.60;18.43;;;14.90;99.90;;;;;;4984918;28;20245;-78
2022/09/12 01:04:26;;;;;;;23.67;18.00;;;14.80;99.90;;;;;;5006680;28;20218;-79
2022/09/12 01:06:57;;;;;;;25.17;17.53;;;14.80;99.90;;;;;;5005509;28;20227;-79
2022/09/12 01:09:25;;;;;;;23.17;17.77;;;14.90;99.90;;;;;;5008681;28;20203;-79
2022/09/12 01:11:53;;;;;;;26.20;18.93;;;14.80;99.90;;;;;;5005759;28;20215;-79
2022/09/12 01:14:20;;;;;;;27.63;18.57;;;14.80;99.90;;;;;;5009419;28;20306;-77
2022/09/12 01:16:49;;;;;;;25.00;19.00;;;14.80;99.90;;;;;;5008971;28;20214;-79
2022/09/12 01:19:17;;;;;;;22.33;17.13;;;14.70;99.90;;;;;;4986880;28;20543;-78
2022/09/12 01:22:08;;;;;;;23.53;17.30;;;14.70;99.90;;;;;;5003470;28;20255;-79
2022/09/12 01:25:09;;;;;;;26.10;19.37;;;14.70;99.90;;;;;;5004564;28;20262;-79
2022/09/12 01:27:40;;;;;;;24.47;17.87;;;14.70;99.90;;;;;;5007667;28;20210;-79
2022/09/12 01:30:41;;;;;;;21.50;15.80;;;14.60;99.90;;;;;;5000940;28;20207;-78
2022/09/12 01:33:24;;;;;;;23.87;16.90;;;14.60;99.90;;;;;;5007722;28;20736;-79
2022/09/12 01:36:03;;;;;;;23.87;16.67;;;14.60;99.90;;;;;;4998637;28;20290;-80
2022/09/12 01:39:01;;;;;;;24.13;17.63;;;14.50;99.90;;;;;;5007175;28;20649;-78
2022/09/12 01:41:39;;;;;;;24.53;17.23;;;14.50;99.90;;;;;;5003075;28;20253;-79
2022/09/12 01:44:22;;;;;;;22.07;17.33;;;14.50;99.90;;;;;;4996351;28;20302;-79
2022/09/12 01:47:07;;;;;;;19.43;15.03;;;14.40;99.90;;;;;;5005296;28;20594;-79
2022/09/12 01:50:06;;;;;;;20.83;16.00;;;14.40;99.90;;;;;;5008841;28;20320;-78
2022/09/12 01:52:48;;;;;;;23.63;16.70;;;14.30;99.90;;;;;;5004343;28;20298;-80
2022/09/12 01:55:21;;;;;;;24.60;17.63;;;14.30;99.90;;;;;;4985727;28;20310;-79
2022/09/12 01:58:01;;;;;;;22.37;17.13;;;14.20;99.90;;;;;;4988982;28;20207;-79
2022/09/12 02:00:33;;;;;;;25.03;18.87;;;14.20;99.90;;;;;;4983187;28;20239;-79
2022/09/12 02:03:13;;;;;;;23.73;18.07;;;14.10;99.90;;;;;;5002450;28;20199;-79
2022/09/12 02:05:47;;;;;;;20.23;15.73;;;14.10;99.90;;;;;;4999858;28;20212;-79
2022/09/12 02:08:32;;;;;;;23.07;16.27;;;14.10;99.90;;;;;;5004519;28;20319;-80
2022/09/12 02:11:06;;;;;;;25.13;17.87;;;14.00;99.90;;;;;;4992817;28;20356;-80
2022/09/12 02:13:46;;;;;;;28.33;19.60;;;14.00;99.90;;;;;;4983707;28;20210;-79
2022/09/12 02:16:17;;;;;;;33.03;21.73;;;14.00;99.90;;;;;;5005306;28;20240;-79
2022/09/12 02:18:49;;;;;;;28.97;20.70;;;13.90;99.90;;;;;;5003647;28;20206;-80
2022/09/12 02:21:19;;;;;;;30.23;21.00;;;14.00;99.90;;;;;;5003720;28;20231;-79
2022/09/12 02:23:56;;;;;;;27.07;18.97;;;13.90;99.90;;;;;;4999846;28;20217;-79
2022/09/12 02:26:38;;;;;;;25.60;18.00;;;13.90;99.90;;;;;;4988897;28;20209;-79
2022/09/12 02:29:05;;;;;;;22.47;15.70;;;13.90;99.90;;;;;;5005655;28;20518;-80
2022/09/12 02:31:39;;;;;;;24.90;16.83;;;13.90;99.90;;;;;;5000960;28;20265;-78
2022/09/12 02:34:21;;;;;;;21.57;15.17;;;13.80;99.90;;;;;;4998394;28;20235;-79
2022/09/12 02:37:06;;;;;;;19.53;14.80;;;13.80;99.90;;;;;;4999830;28;20269;-77
2022/09/12 02:39:34;;;;;;;22.13;16.40;;;13.80;99.90;;;;;;4999755;28;20209;-77
2022/09/12 02:42:02;;;;;;;20.83;15.13;;;13.70;99.90;;;;;;5000675;28;20260;-79
2022/09/12 02:44:32;;;;;;;21.70;15.90;;;13.70;99.90;;;;;;4987094;28;20207;-78
2022/09/12 02:47:10;;;;;;;27.67;17.90;;;13.70;99.90;;;;;;4999657;28;20277;-80
2022/09/12 02:49:37;;;;;;;24.20;16.50;;;13.70;99.90;;;;;;5001511;28;20311;-78
2022/09/12 02:52:04;;;;;;;26.20;17.93;;;13.70;99.90;;;;;;4999138;28;20250;-79
2022/09/12 02:54:31;;;;;;;21.73;15.97;;;13.60;99.90;;;;;;5000242;28;20678;-79
2022/09/12 02:56:58;;;;;;;25.53;18.00;;;13.60;99.90;;;;;;4985191;28;20250;-77
2022/09/12 02:59:26;;;;;;;25.67;17.93;;;13.60;99.90;;;;;;4999853;28;20207;-79
2022/09/12 03:02:05;;;;;;;34.57;20.57;;;13.60;99.90;;;;;;4980002;28;20215;-78
2022/09/12 03:04:59;;;;;;;30.73;19.27;;;13.50;99.90;;;;;;4981986;28;20263;-79
2022/09/12 03:07:47;;;;;;;32.67;20.50;;;13.50;99.90;;;;;;5002526;28;20261;-80
2022/09/12 03:10:25;;;;;;;29.67;19.13;;;13.50;99.90;;;;;;4996325;28;20229;-78
2022/09/12 03:13:16;;;;;;;31.43;20.60;;;13.50;99.90;;;;;;5002548;28;20221;-78
2022/09/12 03:15:50;;;;;;;32.37;21.80;;;13.50;99.90;;;;;;4999142;28;20255;-78
2022/09/12 03:18:35;;;;;;;30.23;19.77;;;13.50;99.90;;;;;;5004184;28;20233;-79
2022/09/12 03:21:20;;;;;;;30.97;18.93;;;13.50;99.90;;;;;;4998318;28;20286;-79
2022/09/12 03:24:00;;;;;;;30.47;19.67;;;13.40;99.90;;;;;;4985215;28;20210;-79
2022/09/12 03:26:35;;;;;;;32.17;19.70;;;13.50;99.90;;;;;;5001522;28;20296;-79
2022/09/12 03:29:05;;;;;;;28.67;19.40;;;13.50;99.90;;;;;;5000809;28;20746;-78
2022/09/12 03:31:32;;;;;;;25.20;17.87;;;13.50;99.90;;;;;;4985574;28;20215;-79
2022/09/12 03:33:59;;;;;;;28.37;18.63;;;13.50;99.90;;;;;;4985109;28;20238;-78
2022/09/12 03:36:28;;;;;;;34.37;21.17;;;13.60;99.90;;;;;;4998882;28;20235;-79
2022/09/12 03:38:55;;;;;;;31.97;19.93;;;13.50;99.90;;;;;;5002609;28;20280;-79
2022/09/12 03:41:22;;;;;;;30.27;19.90;;;13.40;99.90;;;;;;5017837;28;20202;-79
2022/09/12 03:43:49;;;;;;;33.70;21.50;;;13.50;99.90;;;;;;5005613;28;20257;-79
2022/09/12 03:46:16;;;;;;;35.00;21.70;;;13.50;99.90;;;;;;4993785;28;20223;-78
2022/09/12 03:48:43;;;;;;;36.73;21.67;;;13.40;99.90;;;;;;5001650;28;20221;-79
2022/09/12 03:51:11;;;;;;;34.03;21.30;;;13.50;99.90;;;;;;5001234;28;20245;-79
2022/09/12 03:53:37;;;;;;;32.20;19.33;;;13.50;99.90;;;;;;4983868;28;20214;-79
2022/09/12 03:56:07;;;;;;;29.87;18.40;;;13.50;99.90;;;;;;5004633;28;20242;-77
2022/09/12 03:58:35;;;;;;;29.47;18.80;;;13.50;99.90;;;;;;4985296;28;20719;-78
2022/09/12 04:01:11;;;;;;;30.70;20.40;;;13.40;99.90;;;;;;4986337;28;20223;-78
2022/09/12 04:03:43;;;;;;;34.90;20.23;;;13.40;99.90;;;;;;5002635;28;20218;-79
2022/09/12 04:06:13;;;;;;;35.53;20.90;;;13.40;99.90;;;;;;5001606;28;20274;-81
2022/09/12 04:08:41;;;;;;;33.00;20.57;;;13.40;99.90;;;;;;4989002;28;20261;-79
2022/09/12 04:11:11;;;;;;;33.07;19.70;;;13.30;99.90;;;;;;4998505;28;20265;-78
2022/09/12 04:13:39;;;;;;;35.13;19.87;;;13.40;99.90;;;;;;5004629;28;20257;-80
2022/09/12 04:16:07;;;;;;;31.57;20.00;;;13.30;99.90;;;;;;5002396;28;20327;-79
2022/09/12 04:18:34;;;;;;;37.80;20.73;;;13.30;99.90;;;;;;4981332;28;20204;-76
2022/09/12 04:21:06;;;;;;;37.93;21.33;;;13.30;99.90;;;;;;5003797;28;20296;-78
2022/09/12 04:23:35;;;;;;;36.50;22.07;;;13.30;99.90;;;;;;5003068;28;20761;-78
2022/09/12 04:26:05;;;;;;;37.17;21.40;;;13.30;99.90;;;;;;4983293;28;20203;-78
2022/09/12 04:28:33;;;;;;;39.03;21.33;;;13.30;99.90;;;;;;5004638;28;20218;-77
2022/09/12 04:31:11;;;;;;;39.40;22.67;;;13.20;99.90;;;;;;5003387;28;20214;-77
2022/09/12 04:33:38;;;;;;;36.47;21.53;;;13.20;99.90;;;;;;5002670;28;20248;-78
2022/09/12 04:36:13;;;;;;;36.10;21.77;;;13.20;99.90;;;;;;5000838;28;20425;-78
2022/09/12 04:38:40;;;;;;;39.07;21.53;;;13.20;99.90;;;;;;5003366;28;20328;-79
2022/09/12 04:41:35;;;;;;;43.20;23.93;;;13.20;99.90;;;;;;5003851;28;20203;-79
2022/09/12 04:44:12;;;;;;;29.00;18.77;;;13.20;99.90;;;;;;5001103;28;20215;-78
2022/09/12 04:46:43;;;;;;;34.97;20.93;;;13.20;99.90;;;;;;5004500;28;20260;-76
2022/09/12 04:49:11;;;;;;;37.13;21.73;;;13.20;99.90;;;;;;5004450;28;20773;-79
2022/09/12 04:51:40;;;;;;;34.60;19.93;;;13.20;99.90;;;;;;5005940;28;20227;-79
2022/09/12 04:54:11;;;;;;;44.77;23.77;;;13.20;99.90;;;;;;5003476;28;20238;-79
2022/09/12 04:56:39;;;;;;;37.87;22.60;;;13.20;99.90;;;;;;5000573;28;20743;-79
2022/09/12 04:59:07;;;;;;;52.57;28.03;;;13.20;99.90;;;;;;5021187;28;20269;-78
2022/09/12 05:01:34;;;;;;;57.07;29.77;;;13.20;99.90;;;;;;5016397;28;20220;-78
2022/09/12 05:04:02;;;;;;;59.83;29.77;;;13.20;99.90;;;;;;5010451;28;20257;-79
2022/09/12 05:06:33;;;;;;;58.57;30.23;;;13.20;99.90;;;;;;4999718;28;20710;-79
2022/09/12 05:09:01;;;;;;;57.37;30.63;;;13.30;99.90;;;;;;5001757;28;20215;-78
2022/09/12 05:11:30;;;;;;;54.30;27.80;;;13.30;99.90;;;;;;5001192;28;20799;-79
2022/09/12 05:14:17;;;;;;;49.47;25.87;;;13.30;99.90;;;;;;4990746;28;20249;-78
2022/09/12 05:16:44;;;;;;;47.50;25.77;;;13.30;99.90;;;;;;5001568;28;20227;-76
2022/09/12 05:19:15;;;;;;;51.00;27.37;;;13.40;99.90;;;;;;5005076;28;20218;-77
2022/09/12 05:21:42;;;;;;;52.07;27.83;;;13.40;99.90;;;;;;5004224;28;20222;-78
2022/09/12 05:24:10;;;;;;;52.20;28.50;;;13.40;99.90;;;;;;4987881;28;20233;-77
2022/09/12 05:26:37;;;;;;;56.97;29.93;;;13.40;99.90;;;;;;4985889;28;20645;-78
2022/09/12 05:29:05;;;;;;;52.13;28.57;;;13.50;99.90;;;;;;4993016;28;20298;-78
2022/09/12 05:31:33;;;;;;;49.60;26.47;;;13.50;99.90;;;;;;4983285;28;20203;-78
2022/09/12 05:34:04;;;;;;;55.87;28.33;;;13.50;99.90;;;;;;4978570;28;20288;-78
2022/09/12 05:36:32;;;;;;;56.93;29.90;;;13.50;99.90;;;;;;4985883;28;20231;-78
2022/09/12 05:38:59;;;;;;;58.20;30.50;;;13.60;99.90;;;;;;4984027;28;20239;-78
2022/09/12 05:41:32;;;;;;;51.90;29.77;;;13.70;99.90;;;;;;5008099;28;20649;-79
2022/09/12 05:44:02;;;;;;;50.90;26.77;;;13.80;99.90;;;;;;4986257;28;20207;-79
2022/09/12 05:46:37;;;;;;;48.43;24.90;;;13.80;99.90;;;;;;5006463;28;20213;-79
2022/09/12 05:49:06;;;;;;;48.37;26.90;;;13.90;99.90;;;;;;5000361;28;20571;-79
2022/09/12 05:51:37;;;;;;;51.27;28.63;;;13.90;99.90;;;;;;4982204;28;20283;-76
2022/09/12 05:54:09;;;;;;;45.00;25.67;;;13.90;99.90;;;;;;5002264;28;20213;-79
2022/09/12 05:56:40;;;;;;;54.57;29.10;;;13.90;99.90;;;;;;5001903;28;20254;-78
2022/09/12 05:59:18;;;;;;;53.60;28.07;;;14.00;99.90;;;;;;4984908;28;20211;-79
2022/09/12 06:01:47;;;;;;;49.83;26.03;;;14.10;99.90;;;;;;4984328;28;20209;-78
2022/09/12 06:04:15;;;;;;;43.07;25.17;;;14.10;99.90;;;;;;5000976;28;20223;-80
2022/09/12 06:06:43;;;;;;;44.50;26.13;;;14.10;99.90;;;;;;5000930;28;20253;-79
2022/09/12 06:09:12;;;;;;;46.90;27.03;;;14.20;99.90;;;;;;5001659;28;20275;-77
2022/09/12 06:11:40;;;;;;;47.90;26.73;;;14.30;99.90;;;;;;4989093;28;20206;-80
2022/09/12 06:14:08;;;;;;;48.33;27.43;;;14.30;99.90;;;;;;5004008;28;20207;-80
2022/09/12 06:16:36;;;;;;;55.73;29.57;;;14.40;99.90;;;;;;4985255;28;20296;-80
2022/09/12 06:19:18;;;;;;;53.00;28.53;;;14.40;99.90;;;;;;5002707;28;20660;-79
2022/09/12 06:21:48;;;;;;;55.70;30.00;;;14.40;99.90;;;;;;5000020;28;20767;-79
2022/09/12 06:24:20;;;;;;;55.73;30.63;;;14.50;99.90;;;;;;5000762;28;20249;-78
2022/09/12 06:26:48;;;;;;;59.70;31.50;;;14.50;99.90;;;;;;4997932;28;20208;-78
2022/09/12 06:29:15;;;;;;;55.97;30.23;;;14.60;99.90;;;;;;4999769;28;20215;-78
2022/09/12 06:31:43;;;;;;;58.83;33.13;;;14.60;99.90;;;;;;5001293;28;20297;-78
2022/09/12 06:34:13;;;;;;;68.67;35.00;;;14.70;99.90;;;;;;4999058;28;20622;-79
2022/09/12 06:36:42;;;;;;;64.17;34.37;;;14.70;99.90;;;;;;5001642;28;20238;-80
2022/09/12 06:39:11;;;;;;;59.87;31.73;;;14.80;99.90;;;;;;4998644;28;20381;-78
2022/09/12 06:41:39;;;;;;;66.57;34.63;;;14.80;99.90;;;;;;4999186;28;20203;-80
2022/09/12 06:44:17;;;;;;;65.33;35.97;;;14.90;99.90;;;;;;4998287;28;20206;-78
2022/09/12 06:46:44;;;;;;;66.77;34.60;;;14.90;99.90;;;;;;5000818;28;20290;-80
2022/09/12 06:49:11;;;;;;;65.13;34.67;;;15.00;99.90;;;;;;4996675;28;20755;-80
2022/09/12 06:51:40;;;;;;;66.30;35.33;;;15.10;99.90;;;;;;4999575;28;20218;-80
2022/09/12 06:54:10;;;;;;;64.73;34.97;;;15.10;99.90;;;;;;4997781;28;20507;-79
2022/09/12 06:56:37;;;;;;;62.20;34.63;;;15.20;99.90;;;;;;5004601;28;20233;-78
2022/09/12 06:59:05;;;;;;;62.90;35.37;;;15.30;99.90;;;;;;5000252;28;20555;-78
2022/09/12 07:01:32;;;;;;;63.63;34.87;;;15.40;99.90;;;;;;4981917;28;20239;-80
2022/09/12 07:04:02;;;;;;;65.37;32.03;;;15.50;99.90;;;;;;4998677;28;20653;-79
2022/09/12 07:06:34;;;;;;;57.83;33.37;;;15.70;99.90;;;;;;5005037;28;20310;-78
2022/09/12 07:09:03;;;;;;;58.47;33.70;;;15.90;99.90;;;;;;5005179;28;20679;-79
2022/09/12 07:11:32;;;;;;;59.63;34.00;;;16.00;99.90;;;;;;4981588;28;20234;-79
2022/09/12 07:14:01;;;;;;;59.50;33.67;;;16.20;99.90;;;;;;4999224;28;20643;-80
2022/09/12 07:16:28;;;;;;;63.97;32.85;;;16.40;99.90;;;;;;4999128;28;20321;-80
2022/09/12 07:19:04;;;;;;;53.80;30.30;;;16.70;99.90;;;;;;4997335;28;20553;-80
2022/09/12 07:21:31;;;;;;;55.80;32.42;;;17.10;99.90;;;;;;5012579;28;20260;-79
2022/09/12 07:23:58;;;;;;;57.92;33.03;;;17.40;99.90;;;;;;5003834;28;20241;-79
2022/09/12 07:26:27;;;;;;;61.13;32.47;;;17.60;99.90;;;;;;4997511;28;20298;-80
2022/09/12 07:28:55;;;;;;;62.88;34.53;;;17.80;99.90;;;;;;4997684;28;20285;-80
2022/09/12 07:31:43;;;;;;;58.33;32.70;;;17.90;99.90;;;;;;5000775;28;20234;-79
2022/09/12 07:34:10;;;;;;;56.47;33.35;;;18.10;99.90;;;;;;4999812;28;20249;-80
2022/09/12 07:36:38;;;;;;;60.33;31.80;;;18.20;99.90;;;;;;4999181;28;20277;-79
2022/09/12 07:39:05;;;;;;;55.92;31.23;;;18.30;99.90;;;;;;4995492;28;20299;-80
2022/09/12 07:41:32;;;;;;;57.78;31.98;;;18.40;99.90;;;;;;4984551;28;20240;-80
2022/09/12 07:44:01;;;;;;;55.47;30.90;;;18.60;99.90;;;;;;4999814;28;20210;-80
2022/09/12 07:46:29;;;;;;;54.63;31.17;;;19.00;99.90;;;;;;4997719;28;20207;-80
2022/09/12 07:48:58;;;;;;;53.30;30.60;;;19.30;99.90;;;;;;4998028;28;20692;-80
2022/09/12 07:51:30;;;;;;;58.22;30.73;;;19.50;99.90;;;;;;5004136;28;20211;-81
2022/09/12 07:53:57;;;;;;;50.80;31.23;;;19.70;99.90;;;;;;4999711;28;20297;-81
2022/09/12 07:56:26;;;;;;;53.78;31.98;;;19.80;99.90;;;;;;4997675;28;20227;-79
2022/09/12 07:58:57;;;;;;;45.22;29.45;;;20.10;99.90;;;;;;4996909;28;20353;-80
2022/09/12 08:01:25;;;;;;;50.85;29.30;;;20.60;99.90;;;;;;5004802;28;20229;-79
2022/09/12 08:03:58;;;;;;;45.72;30.33;;;20.80;99.90;;;;;;5002257;28;20217;-81
2022/09/12 08:06:27;;;;;;;48.55;31.33;;;21.00;99.90;;;;;;4997514;28;20218;-80
2022/09/12 08:08:55;;;;;;;53.72;29.58;;;21.10;99.90;;;;;;4979934;28;20294;-81
2022/09/12 08:11:24;;;;;;;52.85;30.55;;;21.60;99.90;;;;;;5000406;28;20206;-80
2022/09/12 08:13:53;;;;;;;44.38;29.15;;;21.90;99.90;;;;;;4999116;28;20284;-80
2022/09/12 08:16:25;;;;;;;43.25;28.42;;;22.20;99.90;;;;;;5006182;28;20214;-80
2022/09/12 08:18:52;;;;;;;47.03;30.58;;;22.40;99.90;;;;;;4999935;28;21684;-80
2022/09/12 08:21:24;;;;;;;49.28;29.77;;;22.60;99.90;;;;;;5000611;28;20313;-80
2022/09/12 08:23:53;;;;;;;46.95;29.65;;;22.80;99.90;;;;;;4995553;28;20688;-81
2022/09/12 08:26:20;;;;;;;45.05;30.27;;;23.10;99.90;;;;;;4996456;28;20213;-79
2022/09/12 08:28:47;;;;;;;48.20;29.48;;;23.50;99.90;;;;;;4997394;28;20275;-79
2022/09/12 08:31:18;;;;;;;48.78;29.77;;;23.60;99.90;;;;;;5000151;28;20253;-80
2022/09/12 08:33:45;;;;;;;47.53;30.83;;;23.70;99.90;;;;;;4997455;28;20219;-81
2022/09/12 08:36:19;;;;;;;44.03;28.08;;;23.80;99.90;;;;;;4995332;28;20254;-79
2022/09/12 08:38:48;;;;;;;43.25;28.20;;;24.10;99.90;;;;;;4996742;28;20703;-80
2022/09/12 08:41:29;;;;;;;39.15;27.27;;;24.40;99.90;;;;;;4994733;28;20637;-81
2022/09/12 08:44:23;;;;;;;41.75;27.58;;;24.70;99.90;;;;;;5001844;28;20321;-81
2022/09/12 08:47:17;;;;;;;40.88;27.75;;;25.20;99.90;;;;;;4999295;28;20226;-81
2022/09/12 08:50:08;;;;;;;39.20;28.15;;;25.60;99.90;;;;;;5001728;28;20288;-80
2022/09/12 08:52:57;;;;;;;43.75;27.90;;;25.80;99.90;;;;;;5001719;28;20737;-79
2022/09/12 08:55:43;;;;;;;46.85;28.67;;;25.90;99.90;;;;;;4999344;28;20222;-80
2022/09/12 08:58:15;;;;;;;45.53;28.45;;;25.80;99.90;;;;;;4999620;28;20285;-81
2022/09/12 09:01:02;;;;;;;41.63;27.73;;;25.70;99.90;;;;;;4996496;28;20210;-80
2022/09/12 09:03:49;;;;;;;37.78;26.73;;;25.70;99.90;;;;;;4998904;28;20222;-80
2022/09/12 09:06:24;;;;;;;42.15;28.25;;;25.80;99.90;;;;;;4999048;28;20778;-79
2022/09/12 09:09:20;;;;;;;39.35;25.85;;;26.00;99.90;;;;;;5001749;28;20267;-80
2022/09/12 09:12:29;;;;;;;42.33;26.15;;;26.20;99.90;;;;;;4974027;28;20396;-81
2022/09/12 09:15:23;;;;;;;38.75;26.40;;;26.40;99.90;;;;;;4938722;29;20244;-78
2022/09/12 09:18:16;;;;;;;39.85;26.20;;;26.40;99.90;;;;;;4937201;29;20283;-80
2022/09/12 09:21:10;;;;;;;39.85;26.40;;;26.40;99.90;;;;;;4998046;28;20683;-80
2022/09/12 09:23:48;;;;;;;40.90;25.77;;;26.30;99.90;;;;;;5012825;28;20214;-78
2022/09/12 09:26:26;;;;;;;39.72;25.58;;;26.40;99.90;;;;;;4991155;28;20238;-80
2022/09/12 09:29:03;;;;;;;40.03;25.90;;;26.50;99.90;;;;;;4989365;28;20202;-79
2022/09/12 09:31:36;;;;;;;37.60;24.60;;;26.50;99.90;;;;;;5022366;28;20206;-80
2022/09/12 09:34:30;;;;;;;37.00;24.63;;;26.50;99.90;;;;;;5003430;28;20246;-80
2022/09/12 09:37:31;;;;;;;38.53;25.08;;;26.40;99.90;;;;;;4991120;28;20274;-79
2022/09/12 09:40:08;;;;;;;33.08;22.77;;;26.20;99.90;;;;;;5003488;28;20237;-78
2022/09/12 09:43:05;;;;;;;36.35;24.15;;;26.10;99.90;;;;;;5003719;28;20931;-80
2022/09/12 09:45:31;;;;;;;34.17;23.63;;;26.10;99.90;;;;;;4976419;28;20723;-79
2022/09/12 09:48:16;;;;;;;35.90;23.52;;;26.10;99.90;;;;;;5003498;28;20211;-79
2022/09/12 09:50:45;;;;;;;35.22;23.77;;;26.20;99.90;;;;;;5000944;28;20253;-79
2022/09/12 09:53:35;;;;;;;37.72;23.35;;;26.10;99.90;;;;;;5002430;28;20261;-78
2022/09/12 09:56:08;;;;;;;31.08;21.17;;;26.20;99.90;;;;;;4992251;28;20215;-79
2022/09/12 09:58:36;;;;;;;30.00;18.98;;;26.20;99.90;;;;;;5004688;28;20342;-78
2022/09/12 10:01:14;;;;;;;30.17;20.90;;;26.20;99.90;;;;;;5002789;28;20290;-78
2022/09/12 10:03:51;;;;;;;30.10;18.35;;;26.30;99.90;;;;;;5005202;28;20613;-78
2022/09/12 10:06:25;;;;;;;22.58;17.05;;;26.40;99.90;;;;;;5012475;28;20297;-78
2022/09/12 10:09:06;;;;;;;22.90;14.93;;;26.40;99.90;;;;;;5007639;28;20222;-78
2022/09/12 10:11:32;;;;;;;18.63;12.90;;;26.50;99.90;;;;;;4989900;28;20214;-78
2022/09/12 10:14:00;;;;;;;16.92;12.20;;;26.50;99.90;;;;;;5003413;28;20254;-78
2022/09/12 10:16:31;;;;;;;16.33;12.23;;;26.50;99.90;;;;;;5009719;28;20211;-78
2022/09/12 10:19:01;;;;;;;15.93;11.48;;;26.40;99.90;;;;;;5008457;28;20226;-78
2022/09/12 10:21:36;;;;;;;14.65;10.98;;;26.30;99.90;;;;;;5005337;28;20265;-78
2022/09/12 10:24:25;;;;;;;14.57;10.55;;;26.30;99.90;;;;;;5003815;28;20202;-79
2022/09/12 10:26:57;;;;;;;13.30;10.30;;;26.30;99.90;;;;;;5001691;28;20238;-78
2022/09/12 10:29:31;;;;;;;14.90;9.75;;;26.30;99.90;;;;;;4986010;28;20301;-78
2022/09/12 10:32:08;;;;;;;9.95;8.38;;;26.30;99.90;;;;;;4986370;28;20260;-79
2022/09/12 10:34:42;;;;;;;9.07;7.25;;;26.30;99.90;;;;;;5001185;28;20249;-80
2022/09/12 10:37:29;;;;;;;8.13;6.57;;;26.20;99.90;;;;;;5000199;28;20230;-78
2022/09/12 10:39:58;;;;;;;9.10;6.70;;;26.20;99.90;;;;;;5000544;28;20309;-78
2022/09/12 10:42:46;;;;;;;8.98;6.90;;;26.30;99.90;;;;;;4999201;28;20525;-77
2022/09/12 10:45:20;;;;;;;8.65;6.22;;;26.30;99.90;;;;;;4999201;28;20678;-77
2022/09/12 10:47:49;;;;;;;9.63;6.03;;;26.30;99.90;;;;;;4996199;28;20207;-80
2022/09/12 10:50:20;;;;;;;7.97;5.63;;;26.40;99.90;;;;;;4998728;28;20242;-79
2022/09/12 10:52:48;;;;;;;9.02;6.22;;;26.40;99.90;;;;;;4987413;28;20229;-77
2022/09/12 10:55:31;;;;;;;7.13;5.70;;;26.40;99.90;;;;;;5006889;28;20309;-77
2022/09/12 10:58:21;;;;;;;6.05;4.75;;;26.40;99.90;;;;;;5016328;28;20230;-79
2022/09/12 11:00:58;;;;;;;5.57;4.78;;;26.30;99.90;;;;;;5007721;28;20210;-77
2022/09/12 11:03:52;;;;;;;7.32;4.55;;;26.10;99.90;;;;;;5004895;28;20210;-79
2022/09/12 11:06:32;;;;;;;7.68;4.88;;;26.00;99.90;;;;;;4984859;28;20223;-78
2022/09/12 11:09:19;;;;;;;4.82;4.32;;;25.90;99.90;;;;;;4991316;28;20211;-80
2022/09/12 11:12:21;;;;;;;6.32;4.05;;;25.90;99.90;;;;;;5003417;28;20985;-79
2022/09/12 11:15:13;;;;;;;5.05;4.47;;;25.90;99.90;;;;;;5006696;28;20213;-80
2022/09/12 11:18:04;;;;;;;5.32;4.25;;;26.00;99.90;;;;;;4995711;28;20276;-79
2022/09/12 11:20:55;;;;;;;6.50;4.20;;;26.10;99.90;;;;;;5010624;28;20235;-78
2022/09/12 11:23:35;;;;;;;5.90;4.10;;;26.20;99.90;;;;;;5003423;28;20298;-79
2022/09/12 11:26:33;;;;;;;7.20;4.78;;;26.40;99.90;;;;;;4999457;28;20248;-78
2022/09/12 11:29:30;;;;;;;5.88;4.63;;;26.50;99.90;;;;;;4992432;28;20211;-79
2022/09/12 11:32:45;;;;;;;7.20;4.60;;;26.60;99.90;;;;;;5004615;28;20238;-80
2022/09/12 11:35:18;;;;;;;5.15;4.47;;;26.70;99.90;;;;;;4980730;28;20238;-79
2022/09/12 11:37:50;;;;;;;6.28;5.00;;;26.70;99.90;;;;;;5001169;28;20281;-77
2022/09/12 11:40:55;;;;;;;5.40;4.40;;;26.70;99.90;;;;;;4984344;28;20217;-79
2022/09/12 11:43:45;;;;;;;5.68;4.07;;;26.80;99.90;;;;;;4979600;28;20215;-79
2022/09/12 11:46:35;;;;;;;6.55;4.47;;;26.90;99.90;;;;;;4997023;28;20215;-77
2022/09/12 11:49:14;;;;;;;8.27;4.82;;;26.90;99.90;;;;;;4998785;28;20238;-78
2022/09/12 11:52:02;;;;;;;5.47;4.35;;;26.90;99.90;;;;;;4997437;28;20258;-77
2022/09/12 11:54:41;;;;;;;4.68;4.00;;;26.90;99.90;;;;;;4998127;28;20700;-78
2022/09/12 11:57:16;;;;;;;5.53;3.78;;;26.80;99.90;;;;;;4995323;28;20203;-77
2022/09/12 12:00:06;;;;;;;4.53;3.75;;;27.00;99.90;;;;;;4997119;28;20215;-79
2022/09/12 12:02:43;;;;;;;5.32;3.97;;;27.10;99.90;;;;;;4998589;28;20219;-79
2022/09/12 12:05:38;;;;;;;4.43;3.80;;;27.20;99.90;;;;;;4995826;28;20577;-80
2022/09/12 12:08:06;;;;;;;4.90;3.95;;;27.20;99.90;;;;;;4997904;28;20210;-81
2022/09/12 12:10:38;;;;;;;5.32;3.90;;;27.40;99.90;;;;;;4994664;28;20303;-80
2022/09/12 12:13:22;;;;;;;4.43;3.58;;;27.40;99.90;;;;;;4997276;28;20506;-78
2022/09/12 12:16:03;;;;;;;6.82;4.00;;;27.40;99.90;;;;;;5009629;28;20198;-79
2022/09/12 12:18:33;;;;;;;7.13;3.80;;;27.40;99.90;;;;;;4999002;28;20231;-79
2022/09/12 12:21:38;;;;;;;4.15;3.10;;;27.40;99.90;;;;;;5000692;28;20214;-79
2022/09/12 12:24:08;;;;;;;5.22;4.32;;;27.50;99.90;;;;;;5001614;28;20297;-78
2022/09/12 12:26:41;;;;;;;5.75;3.72;;;27.50;99.90;;;;;;4988270;28;20215;-78
2022/09/12 12:29:17;;;;;;;4.75;3.58;;;27.50;99.90;;;;;;4982752;28;20211;-78
2022/09/12 12:32:02;;;;;;;4.20;3.47;;;27.50;99.90;;;;;;4999452;28;20203;-79
2022/09/12 12:34:39;;;;;;;4.22;3.35;;;27.50;99.90;;;;;;5002048;28;20288;-79
2022/09/12 12:37:17;;;;;;;5.43;3.67;;;27.50;99.90;;;;;;5003467;28;20224;-79
2022/09/12 12:39:48;;;;;;;4.68;3.53;;;27.60;99.90;;;;;;4999979;28;20301;-78
2022/09/12 12:42:41;;;;;;;4.55;3.58;;;27.60;99.90;;;;;;4982809;28;20215;-79
2022/09/12 12:45:08;;;;;;;4.00;3.60;;;27.60;99.90;;;;;;4947698;28;20203;-79
2022/09/12 12:47:35;;;;;;;4.95;3.88;;;27.70;99.90;;;;;;4997797;28;20266;-78
2022/09/12 12:50:10;;;;;;;5.63;4.35;;;27.80;99.90;;;;;;4985372;28;20564;-79
2022/09/12 12:53:01;;;;;;;5.13;3.67;;;27.80;99.90;;;;;;4999543;28;20250;-79
2022/09/12 12:55:37;;;;;;;5.22;3.63;;;27.90;99.90;;;;;;5002008;28;20214;-80
2022/09/12 12:58:37;;;;;;;4.35;3.60;;;27.80;99.90;;;;;;4998997;28;20236;-76
2022/09/12 13:01:17;;;;;;;5.05;3.92;;;27.80;99.20;;;;;;4999706;28;20207;-78
2022/09/12 13:03:53;;;;;;;3.63;3.33;;;27.70;99.60;;;;;;4999229;28;20681;-78
2022/09/12 13:06:43;;;;;;;4.40;3.53;;;27.60;99.90;;;;;;4998096;28;20330;-79
2022/09/12 13:09:40;;;;;;;5.15;4.65;;;27.70;99.70;;;;;;4995972;28;20846;-78
2022/09/12 13:12:18;;;;;;;3.90;3.33;;;27.70;99.30;;;;;;5001177;28;20210;-78